sensor_id;sensor_type;location;lat;lon;timestamp;temperature;humidity
4874;DHT22;2451;49.970;9.068;2022-07-29T00:02:14;22.60;70.00
4874;DHT22;2451;49.970;9.068;2022-07-29T00:04:39;22.60;70.00
4874;DHT22;2451;49.970;9.068;2022-07-29T00:07:05;22.50;70.40
4874;DHT22;2451;49.970;9.068;2022-07-29T00:09:31;22.50;70.30
4874;DHT22;2451;49.970;9.068;2022-07-29T00:11:59;22.50;70.00
4874;DHT22;2451;49.970;9.068;2022-07-29T00:14:25;22.50;70.00
4874;DHT22;2451;49.970;9.068;2022-07-29T00:16:51;22.50;70.00
4874;DHT22;2451;49.970;9.068;2022-07-29T00:19:17;22.50;70.10
4874;DHT22;2451;49.970;9.068;2022-07-29T00:21:42;22.40;70.60
4874;DHT22;2451;49.970;9.068;2022-07-29T00:24:08;22.40;71.00
4874;DHT22;2451;49.970;9.068;2022-07-29T00:26:34;22.40;71.90
4874;DHT22;2451;49.970;9.068;2022-07-29T00:29:00;22.30;72.60
4874;DHT22;2451;49.970;9.068;2022-07-29T00:31:26;22.20;74.00
4874;DHT22;2451;49.970;9.068;2022-07-29T00:33:52;22.10;75.60
4874;DHT22;2451;49.970;9.068;2022-07-29T00:36:17;22.10;76.60
4874;DHT22;2451;49.970;9.068;2022-07-29T00:38:43;22.00;77.80
4874;DHT22;2451;49.970;9.068;2022-07-29T00:41:11;22.00;79.70
4874;DHT22;2451;49.970;9.068;2022-07-29T00:43:36;21.90;80.30
4874;DHT22;2451;49.970;9.068;2022-07-29T00:46:02;21.90;80.30
4874;DHT22;2451;49.970;9.068;2022-07-29T00:48:28;21.70;80.60
4874;DHT22;2451;49.970;9.068;2022-07-29T00:50:54;21.70;81.50
4874;DHT22;2451;49.970;9.068;2022-07-29T00:53:20;21.60;81.70
4874;DHT22;2451;49.970;9.068;2022-07-29T00:55:47;21.50;82.50
4874;DHT22;2451;49.970;9.068;2022-07-29T00:58:13;21.40;83.80
4874;DHT22;2451;49.970;9.068;2022-07-29T01:00:41;21.30;86.00
4874;DHT22;2451;49.970;9.068;2022-07-29T01:03:07;21.30;87.10
4874;DHT22;2451;49.970;9.068;2022-07-29T01:05:34;21.30;88.50
4874;DHT22;2451;49.970;9.068;2022-07-29T01:08:00;21.30;88.10
4874;DHT22;2451;49.970;9.068;2022-07-29T01:10:27;21.20;87.60
4874;DHT22;2451;49.970;9.068;2022-07-29T01:12:55;21.20;87.60
4874;DHT22;2451;49.970;9.068;2022-07-29T01:15:22;21.20;87.70
4874;DHT22;2451;49.970;9.068;2022-07-29T01:18:05;21.10;87.00
4874;DHT22;2451;49.970;9.068;2022-07-29T01:20:55;21.10;86.30
4874;DHT22;2451;49.970;9.068;2022-07-29T01:29:07;21.00;86.50
4874;DHT22;2451;49.970;9.068;2022-07-29T01:31:54;21.00;87.00
4874;DHT22;2451;49.970;9.068;2022-07-29T01:34:25;20.90;87.30
4874;DHT22;2451;49.970;9.068;2022-07-29T01:37:38;20.90;87.30
4874;DHT22;2451;49.970;9.068;2022-07-29T01:40:13;20.80;86.60
4874;DHT22;2451;49.970;9.068;2022-07-29T01:42:45;20.80;86.70
4874;DHT22;2451;49.970;9.068;2022-07-29T01:45:18;20.70;86.70
4874;DHT22;2451;49.970;9.068;2022-07-29T01:50:16;20.60;86.70
4874;DHT22;2451;49.970;9.068;2022-07-29T01:52:49;20.60;86.70
4874;DHT22;2451;49.970;9.068;2022-07-29T01:55:17;20.50;87.60
4874;DHT22;2451;49.970;9.068;2022-07-29T01:57:47;20.50;87.50
4874;DHT22;2451;49.970;9.068;2022-07-29T02:00:14;20.50;88.20
4874;DHT22;2451;49.970;9.068;2022-07-29T02:02:42;20.50;88.00
4874;DHT22;2451;49.970;9.068;2022-07-29T02:05:11;20.50;88.10
4874;DHT22;2451;49.970;9.068;2022-07-29T02:07:37;20.50;88.10
4874;DHT22;2451;49.970;9.068;2022-07-29T02:10:06;20.50;87.80
4874;DHT22;2451;49.970;9.068;2022-07-29T02:12:33;20.60;88.70
4874;DHT22;2451;49.970;9.068;2022-07-29T02:15:02;20.60;88.00
4874;DHT22;2451;49.970;9.068;2022-07-29T02:17:33;20.60;87.40
4874;DHT22;2451;49.970;9.068;2022-07-29T02:20:02;20.60;87.80
4874;DHT22;2451;49.970;9.068;2022-07-29T02:22:30;20.60;87.90
4874;DHT22;2451;49.970;9.068;2022-07-29T02:24:57;20.60;88.70
4874;DHT22;2451;49.970;9.068;2022-07-29T02:27:24;20.60;89.40
4874;DHT22;2451;49.970;9.068;2022-07-29T02:29:52;20.60;89.50
4874;DHT22;2451;49.970;9.068;2022-07-29T02:32:19;20.60;89.40
4874;DHT22;2451;49.970;9.068;2022-07-29T02:34:47;20.50;89.20
4874;DHT22;2451;49.970;9.068;2022-07-29T02:37:15;20.40;90.30
4874;DHT22;2451;49.970;9.068;2022-07-29T02:39:44;20.30;90.30
4874;DHT22;2451;49.970;9.068;2022-07-29T02:42:12;20.30;90.50
4874;DHT22;2451;49.970;9.068;2022-07-29T02:44:39;20.20;91.00
4874;DHT22;2451;49.970;9.068;2022-07-29T02:47:18;20.20;91.40
4874;DHT22;2451;49.970;9.068;2022-07-29T02:50:07;20.20;91.80
4874;DHT22;2451;49.970;9.068;2022-07-29T02:55:33;20.20;92.00
4874;DHT22;2451;49.970;9.068;2022-07-29T02:58:02;20.20;92.10
4874;DHT22;2451;49.970;9.068;2022-07-29T03:00:29;20.10;92.30
4874;DHT22;2451;49.970;9.068;2022-07-29T03:02:56;20.00;92.60
4874;DHT22;2451;49.970;9.068;2022-07-29T03:05:24;20.00;93.60
4874;DHT22;2451;49.970;9.068;2022-07-29T03:07:54;20.00;93.90
4874;DHT22;2451;49.970;9.068;2022-07-29T03:10:21;19.90;94.30
4874;DHT22;2451;49.970;9.068;2022-07-29T03:12:48;19.80;94.50
4874;DHT22;2451;49.970;9.068;2022-07-29T03:15:14;19.70;94.60
4874;DHT22;2451;49.970;9.068;2022-07-29T03:17:40;19.70;95.30
4874;DHT22;2451;49.970;9.068;2022-07-29T03:20:07;19.60;95.70
4874;DHT22;2451;49.970;9.068;2022-07-29T03:22:39;19.50;95.80
4874;DHT22;2451;49.970;9.068;2022-07-29T03:25:09;19.40;95.80
4874;DHT22;2451;49.970;9.068;2022-07-29T03:27:35;19.30;96.10
4874;DHT22;2451;49.970;9.068;2022-07-29T03:30:01;19.30;96.50
4874;DHT22;2451;49.970;9.068;2022-07-29T03:32:26;19.20;96.90
4874;DHT22;2451;49.970;9.068;2022-07-29T03:34:52;19.20;97.30
4874;DHT22;2451;49.970;9.068;2022-07-29T03:37:17;19.20;97.50
4874;DHT22;2451;49.970;9.068;2022-07-29T03:39:44;19.20;97.70
4874;DHT22;2451;49.970;9.068;2022-07-29T03:42:13;19.20;97.50
4874;DHT22;2451;49.970;9.068;2022-07-29T03:44:42;19.20;97.50
4874;DHT22;2451;49.970;9.068;2022-07-29T03:47:09;19.20;97.60
4874;DHT22;2451;49.970;9.068;2022-07-29T03:49:36;19.20;97.30
4874;DHT22;2451;49.970;9.068;2022-07-29T03:52:03;19.10;97.20
4874;DHT22;2451;49.970;9.068;2022-07-29T03:54:29;19.20;97.40
4874;DHT22;2451;49.970;9.068;2022-07-29T03:56:57;19.20;97.10
4874;DHT22;2451;49.970;9.068;2022-07-29T03:59:24;19.20;96.60
4874;DHT22;2451;49.970;9.068;2022-07-29T04:01:51;19.20;96.20
4874;DHT22;2451;49.970;9.068;2022-07-29T04:04:17;19.20;94.90
4874;DHT22;2451;49.970;9.068;2022-07-29T04:06:44;19.20;95.40
4874;DHT22;2451;49.970;9.068;2022-07-29T04:09:10;19.30;95.80
4874;DHT22;2451;49.970;9.068;2022-07-29T04:11:38;19.30;93.80
4874;DHT22;2451;49.970;9.068;2022-07-29T04:14:04;19.40;92.80
4874;DHT22;2451;49.970;9.068;2022-07-29T04:16:30;19.40;93.40
4874;DHT22;2451;49.970;9.068;2022-07-29T04:18:56;19.50;94.20
4874;DHT22;2451;49.970;9.068;2022-07-29T04:21:21;19.50;96.20
4874;DHT22;2451;49.970;9.068;2022-07-29T04:23:47;19.50;96.30
4874;DHT22;2451;49.970;9.068;2022-07-29T04:26:18;19.60;95.80
4874;DHT22;2451;49.970;9.068;2022-07-29T04:28:44;19.60;95.90
4874;DHT22;2451;49.970;9.068;2022-07-29T04:31:11;19.60;96.70
4874;DHT22;2451;49.970;9.068;2022-07-29T04:33:37;19.50;97.10
4874;DHT22;2451;49.970;9.068;2022-07-29T04:36:03;19.50;97.10
4874;DHT22;2451;49.970;9.068;2022-07-29T04:38:28;19.50;97.30
4874;DHT22;2451;49.970;9.068;2022-07-29T04:40:54;19.50;97.40
4874;DHT22;2451;49.970;9.068;2022-07-29T04:43:19;19.50;97.70
4874;DHT22;2451;49.970;9.068;2022-07-29T04:45:45;19.40;97.90
4874;DHT22;2451;49.970;9.068;2022-07-29T04:48:10;19.50;97.00
4874;DHT22;2451;49.970;9.068;2022-07-29T04:50:39;19.50;96.30
4874;DHT22;2451;49.970;9.068;2022-07-29T04:53:06;19.60;97.70
4874;DHT22;2451;49.970;9.068;2022-07-29T04:55:31;19.50;98.10
4874;DHT22;2451;49.970;9.068;2022-07-29T04:57:57;19.50;98.20
4874;DHT22;2451;49.970;9.068;2022-07-29T05:00:22;19.50;99.00
4874;DHT22;2451;49.970;9.068;2022-07-29T05:02:49;19.50;99.20
4874;DHT22;2451;49.970;9.068;2022-07-29T05:05:14;19.50;99.40
4874;DHT22;2451;49.970;9.068;2022-07-29T05:07:40;19.50;99.70
4874;DHT22;2451;49.970;9.068;2022-07-29T05:10:06;19.50;99.90
4874;DHT22;2451;49.970;9.068;2022-07-29T05:12:32;19.40;99.90
4874;DHT22;2451;49.970;9.068;2022-07-29T05:14:57;19.40;99.90
4874;DHT22;2451;49.970;9.068;2022-07-29T05:17:23;19.40;99.90
4874;DHT22;2451;49.970;9.068;2022-07-29T05:19:48;19.50;99.90
4874;DHT22;2451;49.970;9.068;2022-07-29T05:22:17;19.50;99.90
4874;DHT22;2451;49.970;9.068;2022-07-29T05:24:43;19.50;97.20
4874;DHT22;2451;49.970;9.068;2022-07-29T05:27:08;19.50;97.70
4874;DHT22;2451;49.970;9.068;2022-07-29T05:29:34;19.50;99.90
4874;DHT22;2451;49.970;9.068;2022-07-29T05:32:00;19.50;99.90
4874;DHT22;2451;49.970;9.068;2022-07-29T05:34:26;19.50;99.90
4874;DHT22;2451;49.970;9.068;2022-07-29T05:36:51;19.50;99.90
4874;DHT22;2451;49.970;9.068;2022-07-29T05:39:17;19.60;99.90
4874;DHT22;2451;49.970;9.068;2022-07-29T05:41:42;19.70;99.90
4874;DHT22;2451;49.970;9.068;2022-07-29T05:44:08;19.90;99.90
4874;DHT22;2451;49.970;9.068;2022-07-29T05:46:33;20.10;99.90
4874;DHT22;2451;49.970;9.068;2022-07-29T05:48:59;20.20;99.60
4874;DHT22;2451;49.970;9.068;2022-07-29T05:51:24;20.40;98.60
4874;DHT22;2451;49.970;9.068;2022-07-29T05:53:50;20.50;96.90
4874;DHT22;2451;49.970;9.068;2022-07-29T05:56:16;20.60;97.10
4874;DHT22;2451;49.970;9.068;2022-07-29T05:58:41;20.60;96.50
4874;DHT22;2451;49.970;9.068;2022-07-29T06:01:07;20.60;96.40
4874;DHT22;2451;49.970;9.068;2022-07-29T06:03:32;20.60;96.40
4874;DHT22;2451;49.970;9.068;2022-07-29T06:05:58;20.60;96.30
4874;DHT22;2451;49.970;9.068;2022-07-29T06:08:23;20.60;95.90
4874;DHT22;2451;49.970;9.068;2022-07-29T06:10:49;20.60;95.90
4874;DHT22;2451;49.970;9.068;2022-07-29T06:13:15;20.70;97.30
4874;DHT22;2451;49.970;9.068;2022-07-29T06:15:41;20.70;97.40
4874;DHT22;2451;49.970;9.068;2022-07-29T06:18:07;20.80;96.80
4874;DHT22;2451;49.970;9.068;2022-07-29T06:20:34;21.00;95.60
4874;DHT22;2451;49.970;9.068;2022-07-29T06:23:02;21.10;95.20
4874;DHT22;2451;49.970;9.068;2022-07-29T06:25:30;21.20;95.20
4874;DHT22;2451;49.970;9.068;2022-07-29T06:27:56;21.30;95.20
4874;DHT22;2451;49.970;9.068;2022-07-29T06:30:22;21.50;95.80
4874;DHT22;2451;49.970;9.068;2022-07-29T06:32:47;21.70;94.60
4874;DHT22;2451;49.970;9.068;2022-07-29T06:35:13;21.90;93.90
4874;DHT22;2451;49.970;9.068;2022-07-29T06:37:39;22.00;93.00
4874;DHT22;2451;49.970;9.068;2022-07-29T06:40:04;22.10;92.70
4874;DHT22;2451;49.970;9.068;2022-07-29T06:42:48;22.20;92.90
4874;DHT22;2451;49.970;9.068;2022-07-29T06:45:14;22.40;91.50
4874;DHT22;2451;49.970;9.068;2022-07-29T06:47:40;22.50;91.10
4874;DHT22;2451;49.970;9.068;2022-07-29T06:50:06;22.60;90.80
4874;DHT22;2451;49.970;9.068;2022-07-29T06:52:32;22.70;90.50
4874;DHT22;2451;49.970;9.068;2022-07-29T06:54:57;22.80;88.10
4874;DHT22;2451;49.970;9.068;2022-07-29T06:57:24;23.00;89.10
4874;DHT22;2451;49.970;9.068;2022-07-29T06:59:50;23.00;88.80
4874;DHT22;2451;49.970;9.068;2022-07-29T07:02:15;23.10;88.30
4874;DHT22;2451;49.970;9.068;2022-07-29T07:04:41;23.10;87.60
4874;DHT22;2451;49.970;9.068;2022-07-29T07:07:07;23.10;87.40
4874;DHT22;2451;49.970;9.068;2022-07-29T07:09:32;23.20;87.20
4874;DHT22;2451;49.970;9.068;2022-07-29T07:11:58;23.40;87.20
4874;DHT22;2451;49.970;9.068;2022-07-29T07:14:23;23.50;85.20
4874;DHT22;2451;49.970;9.068;2022-07-29T07:16:51;23.60;85.80
4874;DHT22;2451;49.970;9.068;2022-07-29T07:19:17;23.80;85.30
4874;DHT22;2451;49.970;9.068;2022-07-29T07:21:44;23.80;85.50
4874;DHT22;2451;49.970;9.068;2022-07-29T07:24:10;24.00;85.90
4874;DHT22;2451;49.970;9.068;2022-07-29T07:26:35;24.10;86.40
4874;DHT22;2451;49.970;9.068;2022-07-29T07:29:01;24.10;88.10
4874;DHT22;2451;49.970;9.068;2022-07-29T07:31:26;24.20;87.80
4874;DHT22;2451;49.970;9.068;2022-07-29T07:33:52;24.00;83.80
4874;DHT22;2451;49.970;9.068;2022-07-29T07:36:18;24.00;84.00
4874;DHT22;2451;49.970;9.068;2022-07-29T07:38:44;24.00;83.80
4874;DHT22;2451;49.970;9.068;2022-07-29T07:41:10;24.20;83.70
4874;DHT22;2451;49.970;9.068;2022-07-29T07:43:35;24.40;83.40
4874;DHT22;2451;49.970;9.068;2022-07-29T07:46:01;24.60;83.60
4874;DHT22;2451;49.970;9.068;2022-07-29T07:48:26;24.90;82.00
4874;DHT22;2451;49.970;9.068;2022-07-29T07:50:52;25.20;80.50
4874;DHT22;2451;49.970;9.068;2022-07-29T07:53:17;25.40;79.20
4874;DHT22;2451;49.970;9.068;2022-07-29T07:55:43;25.40;79.30
4874;DHT22;2451;49.970;9.068;2022-07-29T07:58:09;25.40;79.10
4874;DHT22;2451;49.970;9.068;2022-07-29T08:00:35;25.70;79.50
4874;DHT22;2451;49.970;9.068;2022-07-29T08:03:01;26.00;77.70
4874;DHT22;2451;49.970;9.068;2022-07-29T08:05:27;26.20;77.60
4874;DHT22;2451;49.970;9.068;2022-07-29T08:07:53;26.40;76.60
4874;DHT22;2451;49.970;9.068;2022-07-29T08:10:19;26.50;76.60
4874;DHT22;2451;49.970;9.068;2022-07-29T08:13:08;26.40;74.60
4874;DHT22;2451;49.970;9.068;2022-07-29T08:15:34;26.40;75.30
4874;DHT22;2451;49.970;9.068;2022-07-29T08:18:00;26.40;75.40
4874;DHT22;2451;49.970;9.068;2022-07-29T08:20:26;26.70;74.70
4874;DHT22;2451;49.970;9.068;2022-07-29T08:22:52;26.90;72.60
4874;DHT22;2451;49.970;9.068;2022-07-29T08:25:19;27.00;72.70
4874;DHT22;2451;49.970;9.068;2022-07-29T08:27:48;27.40;72.80
4874;DHT22;2451;49.970;9.068;2022-07-29T08:30:15;27.40;71.70
4874;DHT22;2451;49.970;9.068;2022-07-29T08:32:41;27.40;71.20
4874;DHT22;2451;49.970;9.068;2022-07-29T08:35:10;27.50;70.70
4874;DHT22;2451;49.970;9.068;2022-07-29T08:37:36;27.50;71.70
4874;DHT22;2451;49.970;9.068;2022-07-29T08:40:02;27.40;70.80
4874;DHT22;2451;49.970;9.068;2022-07-29T08:42:27;27.40;71.80
4874;DHT22;2451;49.970;9.068;2022-07-29T08:44:53;27.60;71.30
4874;DHT22;2451;49.970;9.068;2022-07-29T08:47:19;27.60;70.00
4874;DHT22;2451;49.970;9.068;2022-07-29T08:49:45;27.70;69.60
4874;DHT22;2451;49.970;9.068;2022-07-29T08:52:13;28.00;69.60
4874;DHT22;2451;49.970;9.068;2022-07-29T08:54:39;28.30;68.40
4874;DHT22;2451;49.970;9.068;2022-07-29T08:57:08;28.50;68.10
4874;DHT22;2451;49.970;9.068;2022-07-29T08:59:34;28.50;67.80
4874;DHT22;2451;49.970;9.068;2022-07-29T09:02:00;28.80;68.30
4874;DHT22;2451;49.970;9.068;2022-07-29T09:04:30;29.00;68.50
4874;DHT22;2451;49.970;9.068;2022-07-29T09:07:00;29.00;67.40
4874;DHT22;2451;49.970;9.068;2022-07-29T09:09:29;29.20;68.10
4874;DHT22;2451;49.970;9.068;2022-07-29T09:11:54;28.90;68.30
4874;DHT22;2451;49.970;9.068;2022-07-29T09:14:20;29.10;67.50
4874;DHT22;2451;49.970;9.068;2022-07-29T09:16:55;29.40;69.20
4874;DHT22;2451;49.970;9.068;2022-07-29T09:19:33;29.00;67.60
4874;DHT22;2451;49.970;9.068;2022-07-29T09:22:01;29.20;67.60
4874;DHT22;2451;49.970;9.068;2022-07-29T09:24:41;29.20;66.70
4874;DHT22;2451;49.970;9.068;2022-07-29T09:32:23;29.50;66.70
4874;DHT22;2451;49.970;9.068;2022-07-29T09:34:48;29.80;67.90
4874;DHT22;2451;49.970;9.068;2022-07-29T09:37:26;29.80;68.00
4874;DHT22;2451;49.970;9.068;2022-07-29T09:39:52;29.60;68.30
4874;DHT22;2451;49.970;9.068;2022-07-29T09:42:28;29.50;69.00
4874;DHT22;2451;49.970;9.068;2022-07-29T09:44:53;29.50;69.50
4874;DHT22;2451;49.970;9.068;2022-07-29T09:47:20;29.60;67.50
4874;DHT22;2451;49.970;9.068;2022-07-29T09:49:56;29.40;67.50
4874;DHT22;2451;49.970;9.068;2022-07-29T09:52:27;29.60;69.00
4874;DHT22;2451;49.970;9.068;2022-07-29T09:54:52;29.30;68.80
4874;DHT22;2451;49.970;9.068;2022-07-29T09:57:25;29.00;68.30
4874;DHT22;2451;49.970;9.068;2022-07-29T10:00:07;29.10;69.50
4874;DHT22;2451;49.970;9.068;2022-07-29T10:02:36;29.30;69.70
4874;DHT22;2451;49.970;9.068;2022-07-29T10:05:05;29.50;71.50
4874;DHT22;2451;49.970;9.068;2022-07-29T10:07:50;29.70;67.60
4874;DHT22;2451;49.970;9.068;2022-07-29T10:12:54;30.10;67.30
4874;DHT22;2451;49.970;9.068;2022-07-29T10:15:22;30.20;65.90
4874;DHT22;2451;49.970;9.068;2022-07-29T10:17:50;30.50;66.70
4874;DHT22;2451;49.970;9.068;2022-07-29T10:20:16;30.50;65.40
4874;DHT22;2451;49.970;9.068;2022-07-29T10:22:42;30.60;65.90
4874;DHT22;2451;49.970;9.068;2022-07-29T10:25:10;31.00;66.30
4874;DHT22;2451;49.970;9.068;2022-07-29T10:27:36;31.30;64.60
4874;DHT22;2451;49.970;9.068;2022-07-29T10:30:04;31.20;63.50
4874;DHT22;2451;49.970;9.068;2022-07-29T10:35:43;31.40;64.20
4874;DHT22;2451;49.970;9.068;2022-07-29T10:43:51;31.80;62.80
4874;DHT22;2451;49.970;9.068;2022-07-29T10:46:17;31.80;61.90
4874;DHT22;2451;49.970;9.068;2022-07-29T10:49:15;31.40;61.80
4874;DHT22;2451;49.970;9.068;2022-07-29T10:57:30;31.90;62.30
4874;DHT22;2451;49.970;9.068;2022-07-29T11:05:11;31.90;62.30
4874;DHT22;2451;49.970;9.068;2022-07-29T11:07:39;31.50;63.80
4874;DHT22;2451;49.970;9.068;2022-07-29T11:15:08;31.60;64.00
4874;DHT22;2451;49.970;9.068;2022-07-29T11:20:54;32.10;63.90
4874;DHT22;2451;49.970;9.068;2022-07-29T11:23:27;32.70;63.30
4874;DHT22;2451;49.970;9.068;2022-07-29T11:47:28;31.40;64.70
4874;DHT22;2451;49.970;9.068;2022-07-29T11:49:55;31.30;64.70
4874;DHT22;2451;49.970;9.068;2022-07-29T11:52:22;31.10;65.40
4874;DHT22;2451;49.970;9.068;2022-07-29T11:54:51;31.30;65.00
4874;DHT22;2451;49.970;9.068;2022-07-29T11:57:18;31.40;66.70
4874;DHT22;2451;49.970;9.068;2022-07-29T11:59:46;31.50;66.20
4874;DHT22;2451;49.970;9.068;2022-07-29T12:02:12;31.30;64.70
4874;DHT22;2451;49.970;9.068;2022-07-29T12:04:55;31.40;65.90
4874;DHT22;2451;49.970;9.068;2022-07-29T12:07:32;31.50;65.40
4874;DHT22;2451;49.970;9.068;2022-07-29T12:09:58;31.80;64.90
4874;DHT22;2451;49.970;9.068;2022-07-29T12:12:24;32.10;65.60
4874;DHT22;2451;49.970;9.068;2022-07-29T12:14:50;32.60;63.90
4874;DHT22;2451;49.970;9.068;2022-07-29T12:17:34;32.90;63.50
4874;DHT22;2451;49.970;9.068;2022-07-29T12:20:04;33.40;61.90
4874;DHT22;2451;49.970;9.068;2022-07-29T12:22:38;33.80;62.40
4874;DHT22;2451;49.970;9.068;2022-07-29T12:25:06;34.20;60.00
4874;DHT22;2451;49.970;9.068;2022-07-29T12:27:32;34.30;59.70
4874;DHT22;2451;49.970;9.068;2022-07-29T12:30:05;34.10;59.40
4874;DHT22;2451;49.970;9.068;2022-07-29T12:32:36;34.10;59.40
4874;DHT22;2451;49.970;9.068;2022-07-29T12:35:04;34.10;58.80
4874;DHT22;2451;49.970;9.068;2022-07-29T12:37:32;34.10;59.10
4874;DHT22;2451;49.970;9.068;2022-07-29T12:39:59;34.40;59.40
4874;DHT22;2451;49.970;9.068;2022-07-29T12:42:25;34.70;58.60
4874;DHT22;2451;49.970;9.068;2022-07-29T12:44:50;34.70;57.60
4874;DHT22;2451;49.970;9.068;2022-07-29T12:47:17;34.90;58.40
4874;DHT22;2451;49.970;9.068;2022-07-29T12:49:44;34.80;58.50
4874;DHT22;2451;49.970;9.068;2022-07-29T12:52:32;35.00;58.90
4874;DHT22;2451;49.970;9.068;2022-07-29T12:54:59;35.00;57.70
4874;DHT22;2451;49.970;9.068;2022-07-29T12:57:26;34.90;58.10
4874;DHT22;2451;49.970;9.068;2022-07-29T13:00:08;35.20;58.40
4874;DHT22;2451;49.970;9.068;2022-07-29T13:02:36;34.90;57.80
4874;DHT22;2451;49.970;9.068;2022-07-29T13:05:02;34.70;56.60
4874;DHT22;2451;49.970;9.068;2022-07-29T13:07:30;34.30;56.90
4874;DHT22;2451;49.970;9.068;2022-07-29T13:10:15;33.70;56.70
4874;DHT22;2451;49.970;9.068;2022-07-29T13:13:04;33.20;57.00
4874;DHT22;2451;49.970;9.068;2022-07-29T13:15:30;32.70;57.40
4874;DHT22;2451;49.970;9.068;2022-07-29T13:17:56;32.20;58.60
4874;DHT22;2451;49.970;9.068;2022-07-29T13:20:24;31.90;59.20
4874;DHT22;2451;49.970;9.068;2022-07-29T13:22:50;31.60;59.20
4874;DHT22;2451;49.970;9.068;2022-07-29T13:25:24;32.10;59.40
4874;DHT22;2451;49.970;9.068;2022-07-29T13:27:50;32.70;59.40
4874;DHT22;2451;49.970;9.068;2022-07-29T13:30:15;32.90;59.20
4874;DHT22;2451;49.970;9.068;2022-07-29T13:32:41;32.80;58.80
4874;DHT22;2451;49.970;9.068;2022-07-29T13:35:08;32.70;57.80
4874;DHT22;2451;49.970;9.068;2022-07-29T13:37:34;32.50;58.70
4874;DHT22;2451;49.970;9.068;2022-07-29T13:40:04;32.20;59.30
4874;DHT22;2451;49.970;9.068;2022-07-29T13:42:29;32.00;59.30
4874;DHT22;2451;49.970;9.068;2022-07-29T13:44:55;31.90;60.10
4874;DHT22;2451;49.970;9.068;2022-07-29T13:47:21;31.60;60.50
4874;DHT22;2451;49.970;9.068;2022-07-29T13:49:48;31.50;59.90
4874;DHT22;2451;49.970;9.068;2022-07-29T13:52:13;31.40;58.30
4874;DHT22;2451;49.970;9.068;2022-07-29T13:54:39;31.30;58.60
4874;DHT22;2451;49.970;9.068;2022-07-29T13:57:05;31.20;59.60
4874;DHT22;2451;49.970;9.068;2022-07-29T13:59:31;30.90;60.40
4874;DHT22;2451;49.970;9.068;2022-07-29T14:01:57;30.70;61.20
4874;DHT22;2451;49.970;9.068;2022-07-29T14:04:22;30.40;60.20
4874;DHT22;2451;49.970;9.068;2022-07-29T14:06:51;30.20;61.90
4874;DHT22;2451;49.970;9.068;2022-07-29T14:09:17;29.90;64.30
4874;DHT22;2451;49.970;9.068;2022-07-29T14:11:42;29.60;68.60
4874;DHT22;2451;49.970;9.068;2022-07-29T14:14:08;29.10;78.30
4874;DHT22;2451;49.970;9.068;2022-07-29T14:16:35;28.90;89.30
4874;DHT22;2451;49.970;9.068;2022-07-29T14:19:01;28.50;93.90
4874;DHT22;2451;49.970;9.068;2022-07-29T14:21:27;27.90;90.40
4874;DHT22;2451;49.970;9.068;2022-07-29T14:23:52;27.40;86.20
4874;DHT22;2451;49.970;9.068;2022-07-29T14:26:20;26.90;89.00
4874;DHT22;2451;49.970;9.068;2022-07-29T14:28:45;26.40;91.60
4874;DHT22;2451;49.970;9.068;2022-07-29T14:31:11;25.90;93.00
4874;DHT22;2451;49.970;9.068;2022-07-29T14:33:36;25.60;95.70
4874;DHT22;2451;49.970;9.068;2022-07-29T14:36:02;25.30;97.60
4874;DHT22;2451;49.970;9.068;2022-07-29T14:38:28;25.10;99.90
4874;DHT22;2451;49.970;9.068;2022-07-29T14:40:54;24.90;99.90
4874;DHT22;2451;49.970;9.068;2022-07-29T14:43:19;24.70;99.90
4874;DHT22;2451;49.970;9.068;2022-07-29T14:45:45;24.60;99.90
4874;DHT22;2451;49.970;9.068;2022-07-29T14:48:10;24.50;99.90
4874;DHT22;2451;49.970;9.068;2022-07-29T14:50:37;24.30;99.90
4874;DHT22;2451;49.970;9.068;2022-07-29T14:53:02;24.00;99.90
4874;DHT22;2451;49.970;9.068;2022-07-29T14:55:28;23.70;99.90
4874;DHT22;2451;49.970;9.068;2022-07-29T14:57:54;23.40;99.90
4874;DHT22;2451;49.970;9.068;2022-07-29T15:00:20;23.10;99.90
4874;DHT22;2451;49.970;9.068;2022-07-29T15:02:46;22.80;99.90
4874;DHT22;2451;49.970;9.068;2022-07-29T15:05:12;22.50;99.90
4874;DHT22;2451;49.970;9.068;2022-07-29T15:07:38;22.20;99.90
4874;DHT22;2451;49.970;9.068;2022-07-29T15:10:04;22.00;99.90
4874;DHT22;2451;49.970;9.068;2022-07-29T15:12:31;21.70;99.90
4874;DHT22;2451;49.970;9.068;2022-07-29T15:14:57;21.50;99.90
4874;DHT22;2451;49.970;9.068;2022-07-29T15:17:22;21.30;99.90
4874;DHT22;2451;49.970;9.068;2022-07-29T15:19:48;21.20;99.90
4874;DHT22;2451;49.970;9.068;2022-07-29T15:22:13;21.00;99.90
4874;DHT22;2451;49.970;9.068;2022-07-29T15:24:39;20.90;99.90
4874;DHT22;2451;49.970;9.068;2022-07-29T15:27:04;20.80;99.90
4874;DHT22;2451;49.970;9.068;2022-07-29T15:29:30;20.80;99.90
4874;DHT22;2451;49.970;9.068;2022-07-29T15:31:56;20.70;99.90
4874;DHT22;2451;49.970;9.068;2022-07-29T15:34:21;20.70;99.90
4874;DHT22;2451;49.970;9.068;2022-07-29T15:36:51;20.70;99.90
4874;DHT22;2451;49.970;9.068;2022-07-29T15:39:18;20.70;99.90
4874;DHT22;2451;49.970;9.068;2022-07-29T15:41:43;20.80;99.90
4874;DHT22;2451;49.970;9.068;2022-07-29T15:44:09;20.80;99.90
4874;DHT22;2451;49.970;9.068;2022-07-29T15:46:34;20.80;99.90
4874;DHT22;2451;49.970;9.068;2022-07-29T15:49:18;20.80;99.90
4874;DHT22;2451;49.970;9.068;2022-07-29T15:51:44;20.90;99.90
4874;DHT22;2451;49.970;9.068;2022-07-29T15:54:09;21.00;99.90
4874;DHT22;2451;49.970;9.068;2022-07-29T15:56:35;21.20;99.90
4874;DHT22;2451;49.970;9.068;2022-07-29T15:59:01;21.20;99.90
4874;DHT22;2451;49.970;9.068;2022-07-29T16:01:26;21.30;99.90
4874;DHT22;2451;49.970;9.068;2022-07-29T16:03:52;21.40;99.90
4874;DHT22;2451;49.970;9.068;2022-07-29T16:06:17;21.40;99.90
4874;DHT22;2451;49.970;9.068;2022-07-29T16:08:43;21.50;99.90
4874;DHT22;2451;49.970;9.068;2022-07-29T16:11:09;21.50;99.90
4874;DHT22;2451;49.970;9.068;2022-07-29T16:13:34;21.40;99.90
4874;DHT22;2451;49.970;9.068;2022-07-29T16:16:00;21.20;99.90
4874;DHT22;2451;49.970;9.068;2022-07-29T16:18:25;21.00;99.90
4874;DHT22;2451;49.970;9.068;2022-07-29T16:20:51;20.80;99.90
4874;DHT22;2451;49.970;9.068;2022-07-29T16:23:17;20.60;99.90
4874;DHT22;2451;49.970;9.068;2022-07-29T16:25:42;20.50;99.90
4874;DHT22;2451;49.970;9.068;2022-07-29T16:28:08;20.40;99.90
4874;DHT22;2451;49.970;9.068;2022-07-29T16:30:34;20.50;99.90
4874;DHT22;2451;49.970;9.068;2022-07-29T16:33:00;20.50;99.90
4874;DHT22;2451;49.970;9.068;2022-07-29T16:35:26;20.50;99.90
4874;DHT22;2451;49.970;9.068;2022-07-29T16:37:52;20.50;99.90
4874;DHT22;2451;49.970;9.068;2022-07-29T16:40:17;20.50;99.90
4874;DHT22;2451;49.970;9.068;2022-07-29T16:42:43;20.70;99.90
4874;DHT22;2451;49.970;9.068;2022-07-29T16:45:09;20.80;99.90
4874;DHT22;2451;49.970;9.068;2022-07-29T16:47:34;20.70;99.90
4874;DHT22;2451;49.970;9.068;2022-07-29T16:50:00;20.70;99.90
4874;DHT22;2451;49.970;9.068;2022-07-29T16:52:25;20.70;99.90
4874;DHT22;2451;49.970;9.068;2022-07-29T16:54:51;20.60;99.90
4874;DHT22;2451;49.970;9.068;2022-07-29T16:57:16;20.60;99.90
4874;DHT22;2451;49.970;9.068;2022-07-29T16:59:42;20.50;99.90
4874;DHT22;2451;49.970;9.068;2022-07-29T17:02:08;20.50;99.90
4874;DHT22;2451;49.970;9.068;2022-07-29T17:04:33;20.40;99.90
4874;DHT22;2451;49.970;9.068;2022-07-29T17:06:59;20.40;99.90
4874;DHT22;2451;49.970;9.068;2022-07-29T17:09:25;20.40;99.90
4874;DHT22;2451;49.970;9.068;2022-07-29T17:11:51;20.30;99.90
4874;DHT22;2451;49.970;9.068;2022-07-29T17:14:21;20.20;99.90